Time;durP1;ratioP1;P1;durP2;ratioP2;P2;SDS_P1;SDS_P2;PMS_P1;PMS_P2;Temp;Humidity;BMP_temperature;BMP_pressure;BME280_temperature;BME280_humidity;BME280_pressure;Samples;Min_cycle;Max_cycle;Signal;HPM_P1;HPM_P2
2021/09/22 00:00:51;;;;;;;6.30;3.08;;;17.20;80.70;;;;;;5085202;28;20024;-69
2021/09/22 00:03:16;;;;;;;6.05;2.97;;;17.20;80.70;;;;;;5078763;28;20391;-69
2021/09/22 00:05:42;;;;;;;5.85;3.28;;;17.20;80.60;;;;;;5098074;28;20032;-69
2021/09/22 00:08:10;;;;;;;8.50;3.28;;;17.10;80.50;;;;;;5077062;28;20021;-69
2021/09/22 00:10:35;;;;;;;8.13;3.60;;;17.20;80.60;;;;;;5092504;28;20086;-69
2021/09/22 00:13:01;;;;;;;7.35;3.47;;;17.10;80.60;;;;;;5092703;28;20107;-69
2021/09/22 00:15:27;;;;;;;7.30;3.30;;;17.10;80.60;;;;;;5080056;28;20036;-69
2021/09/22 00:17:54;;;;;;;9.00;3.78;;;17.10;80.70;;;;;;5091640;28;20510;-69
2021/09/22 00:20:24;;;;;;;7.55;3.95;;;17.00;80.70;;;;;;5090219;28;20028;-69
2021/09/22 00:22:52;;;;;;;7.10;3.22;;;17.00;80.80;;;;;;5085329;28;20042;-69
2021/09/22 00:25:18;;;;;;;11.18;3.70;;;16.90;80.70;;;;;;5085342;28;20119;-69
2021/09/22 00:27:43;;;;;;;6.72;3.53;;;17.00;80.80;;;;;;5087237;28;20112;-69
2021/09/22 00:30:12;;;;;;;10.90;3.95;;;16.90;80.60;;;;;;5086202;28;20040;-69
2021/09/22 00:32:38;;;;;;;6.15;3.33;;;16.90;80.70;;;;;;5086345;28;20071;-69
2021/09/22 00:35:05;;;;;;;9.00;3.65;;;16.90;80.50;;;;;;5086312;28;20052;-69
2021/09/22 00:37:32;;;;;;;6.28;3.70;;;16.90;80.40;;;;;;5083657;28;20508;-69
2021/09/22 00:39:58;;;;;;;11.88;3.13;;;16.80;80.40;;;;;;5080073;28;20028;-69
2021/09/22 00:42:23;;;;;;;8.20;3.97;;;16.80;80.50;;;;;;5087994;28;20042;-69
2021/09/22 00:44:53;;;;;;;10.52;3.80;;;16.70;80.70;;;;;;5086560;28;20480;-69
2021/09/22 00:47:19;;;;;;;7.05;4.10;;;16.70;80.90;;;;;;5087694;28;20440;-69
2021/09/22 00:49:45;;;;;;;10.70;3.95;;;16.70;80.90;;;;;;5082991;28;20036;-69
2021/09/22 00:52:14;;;;;;;10.80;4.00;;;16.70;81.00;;;;;;5083958;28;20020;-69
2021/09/22 00:54:41;;;;;;;9.05;3.60;;;16.70;81.00;;;;;;5077442;28;20418;-69
2021/09/22 00:57:09;;;;;;;7.05;3.72;;;16.70;81.10;;;;;;5091191;28;20059;-69
2021/09/22 00:59:35;;;;;;;7.30;3.97;;;16.60;81.20;;;;;;5090820;28;20058;-69
2021/09/22 01:02:01;;;;;;;8.25;3.97;;;16.70;81.20;;;;;;5086944;28;20416;-69
2021/09/22 01:04:28;;;;;;;8.35;3.80;;;16.60;81.20;;;;;;5088493;28;20031;-69
2021/09/22 01:06:53;;;;;;;6.85;4.28;;;16.70;81.30;;;;;;5074865;28;20484;-69
2021/09/22 01:09:20;;;;;;;7.97;3.83;;;16.70;81.20;;;;;;5093038;28;20028;-69
2021/09/22 01:11:46;;;;;;;9.73;3.78;;;16.60;81.10;;;;;;5088470;28;20028;-69
2021/09/22 01:14:12;;;;;;;9.80;3.80;;;16.60;80.90;;;;;;5078469;28;20103;-69
2021/09/22 01:16:45;;;;;;;8.27;4.20;;;16.50;80.70;;;;;;5077453;28;20032;-69
2021/09/22 01:19:11;;;;;;;8.52;3.83;;;16.60;81.00;;;;;;5084778;28;20035;-69
2021/09/22 01:21:42;;;;;;;7.35;4.45;;;16.50;81.00;;;;;;5076247;28;20052;-69
2021/09/22 01:24:08;;;;;;;9.18;4.03;;;16.50;81.20;;;;;;5082402;28;20070;-69
2021/09/22 01:26:35;;;;;;;8.00;4.20;;;16.50;81.10;;;;;;5074783;28;20035;-69
2021/09/22 01:29:03;;;;;;;7.85;3.92;;;16.50;81.20;;;;;;5087107;28;20505;-69
2021/09/22 01:31:29;;;;;;;7.63;4.05;;;16.50;81.00;;;;;;5086243;28;20390;-69
2021/09/22 01:33:59;;;;;;;7.68;4.15;;;16.40;81.10;;;;;;5072257;28;20025;-69
2021/09/22 01:36:47;;;;;;;11.25;4.25;;;16.40;81.40;;;;;;5087710;28;20044;-69
2021/09/22 01:39:13;;;;;;;6.97;3.50;;;16.40;81.90;;;;;;5091398;28;20038;-69
2021/09/22 01:41:41;;;;;;;4.95;3.35;;;16.40;81.10;;;;;;5072564;28;20031;-69
2021/09/22 01:44:08;;;;;;;11.88;4.20;;;16.30;81.00;;;;;;5071615;28;20119;-69
2021/09/22 01:47:04;;;;;;;6.32;4.13;;;16.30;81.10;;;;;;5061169;28;20549;-69
2021/09/22 01:50:03;;;;;;;8.30;4.50;;;16.30;81.00;;;;;;5086326;28;20599;-69
2021/09/22 01:52:33;;;;;;;10.05;4.40;;;16.30;81.30;;;;;;5076478;28;20093;-69
2021/09/22 01:55:10;;;;;;;7.55;3.95;;;16.30;81.40;;;;;;5072815;28;20421;-69
2021/09/22 01:57:36;;;;;;;7.13;4.18;;;16.30;81.30;;;;;;5090275;28;20031;-69
2021/09/22 02:00:06;;;;;;;7.18;4.90;;;16.20;81.40;;;;;;5084240;28;20441;-69
2021/09/22 02:02:41;;;;;;;7.07;4.28;;;16.20;81.60;;;;;;5072583;28;20032;-69
2021/09/22 02:05:21;;;;;;;7.30;4.20;;;16.20;81.50;;;;;;5082342;28;20032;-69
2021/09/22 02:07:55;;;;;;;7.47;4.47;;;16.20;81.60;;;;;;5071577;28;20139;-69
2021/09/22 02:10:25;;;;;;;10.95;4.60;;;16.20;81.80;;;;;;5099700;28;20043;-69
2021/09/22 02:12:51;;;;;;;11.18;4.32;;;16.20;82.00;;;;;;5084214;28;20147;-69
2021/09/22 02:15:18;;;;;;;6.38;4.10;;;16.20;81.70;;;;;;5070866;28;20032;-70
2021/09/22 02:18:02;;;;;;;7.15;3.90;;;16.20;81.70;;;;;;5076325;28;20494;-69
2021/09/22 02:20:29;;;;;;;14.13;4.43;;;16.20;81.50;;;;;;5087695;28;20036;-69
2021/09/22 02:23:07;;;;;;;7.97;4.30;;;16.20;81.60;;;;;;5093846;28;20082;-69
2021/09/22 02:25:34;;;;;;;9.73;4.00;;;16.20;81.50;;;;;;5074807;28;20029;-69
2021/09/22 02:28:00;;;;;;;7.93;4.32;;;16.20;81.50;;;;;;5087214;28;20020;-69
2021/09/22 02:30:27;;;;;;;8.75;4.28;;;16.20;81.90;;;;;;5089475;28;20032;-69
2021/09/22 02:32:59;;;;;;;7.15;4.30;;;16.20;82.00;;;;;;5080721;28;20039;-69
2021/09/22 02:35:27;;;;;;;6.35;4.28;;;16.20;82.20;;;;;;5084213;28;20085;-69
2021/09/22 02:38:11;;;;;;;13.43;4.40;;;16.20;82.20;;;;;;5093363;28;20042;-73
2021/09/22 02:40:41;;;;;;;9.90;4.30;;;16.20;82.30;;;;;;5084178;28;20028;-69
2021/09/22 02:43:09;;;;;;;9.30;4.60;;;16.20;82.20;;;;;;5081441;28;20028;-69
2021/09/22 02:45:35;;;;;;;11.05;4.65;;;16.20;82.40;;;;;;5079799;28;20030;-69
2021/09/22 02:48:01;;;;;;;14.93;5.10;;;16.20;82.50;;;;;;5077789;28;20020;-69
2021/09/22 02:50:26;;;;;;;17.05;4.68;;;16.20;82.40;;;;;;5074642;28;20098;-69
2021/09/22 02:52:52;;;;;;;14.15;5.20;;;16.30;82.50;;;;;;5074833;28;20081;-69
2021/09/22 02:55:19;;;;;;;10.20;4.90;;;16.30;82.60;;;;;;5075665;28;20029;-69
2021/09/22 02:57:47;;;;;;;15.05;5.18;;;16.30;82.80;;;;;;5074322;28;20043;-69
2021/09/22 03:00:14;;;;;;;8.25;4.53;;;16.30;83.00;;;;;;5081095;28;20361;-69
2021/09/22 03:02:40;;;;;;;9.45;4.80;;;16.30;82.90;;;;;;5078101;28;20127;-70
2021/09/22 03:05:06;;;;;;;7.88;4.90;;;16.30;83.00;;;;;;5080797;28;20569;-70
2021/09/22 03:07:33;;;;;;;8.60;5.05;;;16.30;83.00;;;;;;5082251;28;20016;-69
2021/09/22 03:09:58;;;;;;;10.57;5.60;;;16.40;83.00;;;;;;5077126;28;20476;-69
2021/09/22 03:12:24;;;;;;;11.13;5.32;;;16.30;83.00;;;;;;5072779;28;20020;-69
2021/09/22 03:14:54;;;;;;;7.28;5.03;;;16.30;82.90;;;;;;5084595;28;20472;-69
2021/09/22 03:17:22;;;;;;;8.93;5.72;;;16.30;82.90;;;;;;5083182;28;20024;-70
2021/09/22 03:19:48;;;;;;;7.88;5.13;;;16.30;83.70;;;;;;5086701;28;20032;-71
2021/09/22 03:22:16;;;;;;;7.88;3.90;;;16.30;83.10;;;;;;5079119;28;20017;-71
2021/09/22 03:25:01;;;;;;;11.52;5.38;;;16.30;82.80;;;;;;5089024;28;20429;-71
2021/09/22 03:27:27;;;;;;;8.80;5.20;;;16.30;82.80;;;;;;5075425;28;20047;-71
2021/09/22 03:29:52;;;;;;;7.35;4.35;;;16.20;82.80;;;;;;5083091;28;20499;-71
2021/09/22 03:32:18;;;;;;;7.20;4.30;;;16.30;82.90;;;;;;5081167;28;20387;-71
2021/09/22 03:34:44;;;;;;;6.80;4.47;;;16.30;83.00;;;;;;5085228;28;20074;-71
2021/09/22 03:37:11;;;;;;;7.40;4.32;;;16.30;83.10;;;;;;5086467;28;20483;-71
2021/09/22 03:39:38;;;;;;;7.68;4.35;;;16.30;83.00;;;;;;5082450;28;20028;-70
2021/09/22 03:42:03;;;;;;;6.30;4.10;;;16.30;82.90;;;;;;5092568;28;20112;-71
2021/09/22 03:44:29;;;;;;;10.40;5.00;;;16.20;82.70;;;;;;5091890;28;20164;-71
2021/09/22 03:46:55;;;;;;;6.95;4.80;;;16.20;82.80;;;;;;5091890;28;20422;-71
2021/09/22 03:49:21;;;;;;;10.82;5.43;;;16.20;82.80;;;;;;5079641;28;20547;-71
2021/09/22 03:51:47;;;;;;;9.82;5.05;;;16.20;82.80;;;;;;5087417;28;20041;-71
2021/09/22 03:54:13;;;;;;;7.55;5.10;;;16.20;82.50;;;;;;5086458;28;20055;-71
2021/09/22 03:56:38;;;;;;;8.63;5.10;;;16.20;82.20;;;;;;5087615;28;20562;-71
2021/09/22 03:59:04;;;;;;;8.05;4.82;;;16.20;82.30;;;;;;5081726;28;20127;-71
2021/09/22 04:01:30;;;;;;;7.05;4.90;;;16.20;82.20;;;;;;5090757;28;20376;-71
2021/09/22 04:03:56;;;;;;;7.90;4.38;;;16.10;81.90;;;;;;5073878;28;20399;-71
2021/09/22 04:06:22;;;;;;;14.02;4.90;;;16.10;81.60;;;;;;5075992;28;20032;-71
2021/09/22 04:08:49;;;;;;;7.53;4.47;;;16.10;81.50;;;;;;5085409;28;20593;-71
2021/09/22 04:11:16;;;;;;;9.65;4.40;;;16.00;81.40;;;;;;5082159;28;20032;-71
2021/09/22 04:13:43;;;;;;;12.18;5.28;;;16.00;81.40;;;;;;5089475;28;20544;-71
2021/09/22 04:16:10;;;;;;;7.85;4.35;;;15.90;81.60;;;;;;5091589;28;20028;-71
2021/09/22 04:18:37;;;;;;;8.75;5.25;;;16.00;81.70;;;;;;5092296;28;20042;-71
2021/09/22 04:21:05;;;;;;;9.88;5.05;;;15.90;81.90;;;;;;5090944;28;20368;-71
2021/09/22 04:23:31;;;;;;;9.50;4.47;;;15.90;81.90;;;;;;5079692;28;20032;-71
2021/09/22 04:25:57;;;;;;;7.32;4.88;;;15.90;81.80;;;;;;5076680;28;20036;-71
2021/09/22 04:28:23;;;;;;;8.30;5.18;;;15.90;81.80;;;;;;5087246;28;20028;-71
2021/09/22 04:31:07;;;;;;;8.13;4.90;;;15.80;81.90;;;;;;5092168;28;20055;-71
2021/09/22 04:33:51;;;;;;;9.23;5.25;;;15.80;81.90;;;;;;5076186;28;20097;-71
2021/09/22 04:36:35;;;;;;;;;;;15.80;82.00;;;;;;5073383;28;20514;-71
2021/09/22 04:39:20;;;;;;;6.65;4.82;;;15.70;81.60;;;;;;5089303;28;20029;-71
2021/09/22 04:42:04;;;;;;;8.85;4.80;;;15.70;81.70;;;;;;5092819;28;20403;-71
2021/09/22 04:44:48;;;;;;;9.40;5.38;;;15.60;82.00;;;;;;5073575;28;20059;-71
2021/09/22 04:47:32;;;;;;;8.40;4.78;;;15.60;82.20;;;;;;5073275;28;20074;-71
2021/09/22 04:50:17;;;;;;;8.43;5.25;;;15.60;82.30;;;;;;5079729;28;20051;-71
2021/09/22 04:53:01;;;;;;;7.00;5.00;;;15.60;82.40;;;;;;5078408;28;20030;-71
2021/09/22 04:55:45;;;;;;;8.27;5.18;;;15.50;82.60;;;;;;5083681;28;20439;-71
2021/09/22 04:58:29;;;;;;;8.05;5.28;;;15.50;82.90;;;;;;5088633;28;20066;-71
2021/09/22 05:01:13;;;;;;;9.48;4.38;;;15.50;83.00;;;;;;5091575;28;20039;-71
2021/09/22 05:03:57;;;;;;;;;;;15.50;82.70;;;;;;5079911;28;20040;-71
2021/09/22 05:06:41;;;;;;;6.38;4.18;;;15.50;82.20;;;;;;5091077;28;19917;-71
2021/09/22 05:09:25;;;;;;;6.75;4.32;;;15.50;82.20;;;;;;5082479;28;20043;-71
2021/09/22 05:12:09;;;;;;;10.88;4.47;;;15.50;82.60;;;;;;5089983;28;20102;-71
2021/09/22 05:14:53;;;;;;;8.95;3.78;;;15.50;82.80;;;;;;5092345;28;20058;-71
2021/09/22 05:17:37;;;;;;;9.73;5.20;;;15.40;82.90;;;;;;5073581;28;20403;-71
2021/09/22 05:20:22;;;;;;;8.20;4.43;;;15.40;83.20;;;;;;5079279;28;20403;-71
2021/09/22 05:23:06;;;;;;;8.20;4.50;;;15.40;83.10;;;;;;5074496;28;20039;-71
2021/09/22 05:25:50;;;;;;;8.15;5.15;;;15.40;83.40;;;;;;5074471;28;20036;-71
2021/09/22 05:28:54;;;;;;;9.52;6.22;;;15.30;83.40;;;;;;5003021;28;20516;-73
2021/09/22 05:31:39;;;;;;;10.63;5.40;;;15.30;83.60;;;;;;5007838;28;20116;-72
2021/09/22 05:34:23;;;;;;;9.63;4.18;;;15.30;83.60;;;;;;5063471;28;20042;-72
2021/09/22 05:37:07;;;;;;;10.02;5.75;;;15.20;83.50;;;;;;5074517;28;20047;-72
2021/09/22 05:39:51;;;;;;;5.88;3.17;;;15.30;83.80;;;;;;5079868;28;20043;-71
2021/09/22 05:42:35;;;;;;;13.55;6.65;;;15.30;84.20;;;;;;5085772;28;20185;-72
2021/09/22 05:45:20;;;;;;;9.50;6.68;;;15.20;83.90;;;;;;5076781;28;20078;-72
2021/09/22 05:48:04;;;;;;;11.10;6.22;;;15.20;84.00;;;;;;5084500;28;20108;-71
2021/09/22 05:50:48;;;;;;;9.73;5.93;;;15.30;84.10;;;;;;5086938;28;20054;-72
2021/09/22 05:53:33;;;;;;;8.50;6.05;;;15.20;84.00;;;;;;5072115;28;20106;-80
2021/09/22 05:56:17;;;;;;;9.07;6.13;;;15.20;84.00;;;;;;5083042;28;20399;-72
2021/09/22 05:59:01;;;;;;;11.82;6.45;;;15.20;84.00;;;;;;5080839;28;20055;-73
2021/09/22 06:01:45;;;;;;;9.80;7.00;;;15.30;84.30;;;;;;5076293;28;20054;-72
2021/09/22 06:04:29;;;;;;;10.40;6.43;;;15.30;84.50;;;;;;5074737;28;20039;-73
2021/09/22 06:07:17;;;;;;;12.77;6.55;;;15.30;84.50;;;;;;5084048;28;20082;-73
2021/09/22 06:10:06;;;;;;;10.05;5.63;;;15.30;84.40;;;;;;5074030;28;20502;-72
2021/09/22 06:12:55;;;;;;;8.93;5.82;;;15.30;84.30;;;;;;5083082;28;20032;-79
2021/09/22 06:15:20;;;;;;;11.73;7.38;;;15.30;84.20;;;;;;5081384;28;20035;-79
2021/09/22 06:17:46;;;;;;;10.98;6.70;;;15.30;84.50;;;;;;5089744;28;20387;-80
2021/09/22 06:20:13;;;;;;;12.38;6.93;;;15.30;84.60;;;;;;5075767;28;20037;-70
2021/09/22 06:22:38;;;;;;;13.07;7.72;;;15.40;84.70;;;;;;5083518;28;20036;-73
2021/09/22 06:25:04;;;;;;;13.48;7.65;;;15.40;84.60;;;;;;5073216;28;20032;-71
2021/09/22 06:27:32;;;;;;;10.65;7.00;;;15.40;84.70;;;;;;5074709;28;20020;-71
2021/09/22 06:29:57;;;;;;;13.00;8.18;;;15.40;84.60;;;;;;5079106;28;20064;-71
2021/09/22 06:32:23;;;;;;;11.80;7.72;;;15.40;84.60;;;;;;5080158;28;20024;-77
2021/09/22 06:35:08;;;;;;;;;;;15.50;84.80;;;;;;5076206;28;20028;-75
2021/09/22 06:37:49;;;;;;;13.73;8.10;;;15.50;84.00;;;;;;5073678;28;19923;-72
2021/09/22 06:40:18;;;;;;;15.52;7.63;;;15.50;84.40;;;;;;5075474;28;20039;-72
2021/09/22 06:42:45;;;;;;;21.92;8.30;;;15.60;85.00;;;;;;5086518;28;20088;-72
2021/09/22 06:45:11;;;;;;;14.88;8.20;;;15.60;85.40;;;;;;5073272;28;20085;-72
2021/09/22 06:47:37;;;;;;;12.48;7.97;;;15.60;85.60;;;;;;5078922;28;20024;-72
2021/09/22 06:50:03;;;;;;;11.05;8.18;;;15.70;85.70;;;;;;5079185;28;20045;-73
2021/09/22 06:52:29;;;;;;;14.13;8.48;;;15.70;85.90;;;;;;5079297;28;20589;-71
2021/09/22 06:54:56;;;;;;;15.23;8.95;;;15.80;86.00;;;;;;5082872;28;20037;-73
2021/09/22 06:57:22;;;;;;;15.57;7.97;;;15.80;86.40;;;;;;5075693;28;20028;-70
2021/09/22 06:59:47;;;;;;;14.57;8.18;;;15.80;86.30;;;;;;5075078;28;20047;-72
2021/09/22 07:02:13;;;;;;;14.48;8.63;;;15.90;86.10;;;;;;5082047;28;20118;-70
2021/09/22 07:04:39;;;;;;;17.25;8.63;;;15.80;86.10;;;;;;5085421;28;20122;-71
2021/09/22 07:07:04;;;;;;;16.58;9.40;;;15.90;86.60;;;;;;5086566;28;20378;-71
2021/09/22 07:09:30;;;;;;;15.60;8.80;;;15.90;86.90;;;;;;5084238;28;20056;-71
2021/09/22 07:11:56;;;;;;;12.57;7.88;;;16.00;86.80;;;;;;5085987;28;20463;-71
2021/09/22 07:14:22;;;;;;;14.38;8.50;;;16.00;86.80;;;;;;5085095;28;20028;-71
2021/09/22 07:16:48;;;;;;;16.67;9.85;;;16.00;86.90;;;;;;5090776;28;20042;-71
2021/09/22 07:19:14;;;;;;;15.20;8.35;;;16.10;87.00;;;;;;5082947;28;20025;-72
2021/09/22 07:21:39;;;;;;;13.40;9.52;;;16.10;86.60;;;;;;5088090;28;20085;-71
2021/09/22 07:24:05;;;;;;;13.32;8.63;;;16.20;87.10;;;;;;5087445;28;20059;-69
2021/09/22 07:26:31;;;;;;;12.98;8.35;;;16.20;86.80;;;;;;5083190;28;20672;-75
2021/09/22 07:28:58;;;;;;;17.60;9.63;;;16.20;86.50;;;;;;5081953;28;20103;-76
2021/09/22 07:31:24;;;;;;;23.73;8.80;;;16.20;86.10;;;;;;5087450;28;20138;-70
2021/09/22 07:33:50;;;;;;;17.38;10.25;;;16.20;86.20;;;;;;5074986;28;20028;-71
2021/09/22 07:36:15;;;;;;;17.48;11.23;;;16.20;86.60;;;;;;5088612;28;20036;-71
2021/09/22 07:38:41;;;;;;;15.80;9.65;;;16.30;86.60;;;;;;5089847;28;20044;-71
2021/09/22 07:41:07;;;;;;;17.88;10.95;;;16.30;86.80;;;;;;5082304;28;20024;-71
2021/09/22 07:43:33;;;;;;;15.93;9.38;;;16.30;86.80;;;;;;5076301;28;20032;-71
2021/09/22 07:45:59;;;;;;;19.70;10.23;;;16.20;86.20;;;;;;5080891;28;20035;-71
2021/09/22 07:48:25;;;;;;;17.98;10.48;;;16.30;86.80;;;;;;5088235;28;20380;-71
2021/09/22 07:50:51;;;;;;;21.92;9.48;;;16.30;87.00;;;;;;5085542;28;20036;-71
2021/09/22 07:53:17;;;;;;;19.25;10.02;;;16.30;86.20;;;;;;5085039;28;20117;-71
2021/09/22 07:55:43;;;;;;;6.88;4.18;;;16.30;86.20;;;;;;5081030;28;20111;-71
2021/09/22 07:58:09;;;;;;;17.10;7.28;;;16.40;85.50;;;;;;5072669;28;20497;-71
2021/09/22 08:00:34;;;;;;;16.08;10.43;;;16.30;85.10;;;;;;5078178;28;20024;-71
2021/09/22 08:03:00;;;;;;;10.30;6.00;;;16.30;85.90;;;;;;5076468;28;20032;-71
2021/09/22 08:05:27;;;;;;;16.33;8.52;;;16.30;85.30;;;;;;5082447;28;20035;-71
2021/09/22 08:07:52;;;;;;;14.95;9.02;;;16.30;85.50;;;;;;5085721;28;20032;-71
2021/09/22 08:10:19;;;;;;;15.95;7.80;;;16.30;86.60;;;;;;5081377;28;20095;-71
2021/09/22 08:12:49;;;;;;;9.13;2.20;;;16.30;85.90;;;;;;5080448;28;20024;-71
2021/09/22 08:15:15;;;;;;;15.25;6.88;;;16.30;85.60;;;;;;5087630;28;20417;-71
2021/09/22 08:17:41;;;;;;;16.10;6.85;;;16.30;86.50;;;;;;5088626;28;20451;-71
2021/09/22 08:20:08;;;;;;;15.68;8.38;;;16.30;86.80;;;;;;5089522;28;20060;-71
2021/09/22 08:22:33;;;;;;;21.63;9.00;;;16.30;87.30;;;;;;5088205;28;20032;-71
2021/09/22 08:25:00;;;;;;;13.55;7.60;;;16.40;87.60;;;;;;5078144;28;20039;-71
2021/09/22 08:27:26;;;;;;;16.65;8.43;;;16.40;87.60;;;;;;5087551;28;20107;-71
2021/09/22 08:29:52;;;;;;;21.50;9.90;;;16.40;87.90;;;;;;5079237;28;20052;-71
2021/09/22 08:32:18;;;;;;;15.63;7.90;;;16.40;88.00;;;;;;5083257;28;20036;-71
2021/09/22 08:34:45;;;;;;;21.13;7.22;;;16.50;87.80;;;;;;5079673;28;20025;-71
2021/09/22 08:37:10;;;;;;;19.52;9.60;;;16.50;87.30;;;;;;5077056;28;20052;-71
2021/09/22 08:39:36;;;;;;;22.20;9.80;;;16.50;87.70;;;;;;5081489;28;20020;-71
2021/09/22 08:42:04;;;;;;;13.02;7.15;;;16.60;87.90;;;;;;5086859;28;20060;-71
2021/09/22 08:44:30;;;;;;;15.05;8.30;;;16.60;87.60;;;;;;5083220;28;20460;-71
2021/09/22 08:46:57;;;;;;;13.13;8.52;;;16.60;87.60;;;;;;5079879;28;20036;-71
2021/09/22 08:49:24;;;;;;;8.23;4.63;;;16.70;88.10;;;;;;5087649;28;20028;-71
2021/09/22 08:51:50;;;;;;;18.55;8.80;;;16.80;87.50;;;;;;5086498;28;20127;-71
2021/09/22 08:54:16;;;;;;;13.48;7.18;;;16.70;88.20;;;;;;5077727;28;20028;-71
2021/09/22 08:56:43;;;;;;;18.70;8.02;;;16.70;88.30;;;;;;5075508;28;20040;-71
2021/09/22 08:59:10;;;;;;;21.85;9.05;;;16.80;88.60;;;;;;5082335;28;20040;-71
2021/09/22 09:01:36;;;;;;;12.18;6.28;;;16.80;89.20;;;;;;5080229;28;20036;-71
2021/09/22 09:04:21;;;;;;;6.65;3.97;;;16.80;89.00;;;;;;5086956;28;20112;-71
2021/09/22 09:06:54;;;;;;;15.80;6.70;;;16.80;88.80;;;;;;5085134;28;20040;-71
2021/09/22 09:09:20;;;;;;;8.20;4.70;;;16.80;89.20;;;;;;5078875;28;20531;-71
2021/09/22 09:11:45;;;;;;;13.88;6.05;;;16.80;89.00;;;;;;5077848;28;20410;-71
2021/09/22 09:14:14;;;;;;;9.95;4.57;;;16.90;89.30;;;;;;5090842;28;20024;-71
2021/09/22 09:16:46;;;;;;;6.70;3.20;;;16.90;89.50;;;;;;5081988;28;20039;-71
2021/09/22 09:19:16;;;;;;;21.48;7.80;;;17.00;89.70;;;;;;5080657;28;20028;-71
2021/09/22 09:22:05;;;;;;;10.38;5.43;;;17.00;90.00;;;;;;5077587;28;20074;-71
2021/09/22 09:24:37;;;;;;;19.35;9.05;;;17.00;90.10;;;;;;5074814;28;20078;-71
2021/09/22 09:27:09;;;;;;;21.13;10.43;;;17.10;90.20;;;;;;5074617;28;20095;-71
2021/09/22 09:29:36;;;;;;;16.33;9.10;;;17.10;90.30;;;;;;5083958;28;20024;-71
2021/09/22 09:32:21;;;;;;;8.38;5.25;;;17.10;90.30;;;;;;5076367;28;20489;-72
2021/09/22 09:35:20;;;;;;;4.15;1.90;;;17.20;90.10;;;;;;5075669;28;20036;-75
2021/09/22 09:37:48;;;;;;;16.05;8.00;;;17.20;90.10;;;;;;5040280;28;20144;-77
2021/09/22 09:40:31;;;;;;;17.08;8.05;;;17.30;90.20;;;;;;5080223;28;20032;-71
2021/09/22 09:43:08;;;;;;;19.85;7.88;;;17.30;90.30;;;;;;5076280;28;20109;-72
2021/09/22 09:45:39;;;;;;;23.67;7.50;;;17.40;90.40;;;;;;5073689;28;20391;-71
2021/09/22 09:48:11;;;;;;;13.02;5.93;;;17.40;90.40;;;;;;5077913;28;20035;-71
2021/09/22 09:50:44;;;;;;;9.73;4.05;;;17.50;90.30;;;;;;5092212;28;20063;-72
2021/09/22 09:53:21;;;;;;;8.38;4.47;;;17.50;90.40;;;;;;5073070;28;20062;-72
2021/09/22 09:55:47;;;;;;;14.18;7.20;;;17.60;90.90;;;;;;5084199;28;20032;-71
2021/09/22 09:58:12;;;;;;;13.88;5.78;;;17.60;90.90;;;;;;5086533;28;20034;-71
2021/09/22 10:00:38;;;;;;;15.55;6.18;;;17.70;91.00;;;;;;5078694;28;20035;-71
2021/09/22 10:03:19;;;;;;;20.90;11.05;;;17.70;91.10;;;;;;5079882;28;20098;-71
2021/09/22 10:05:47;;;;;;;14.95;6.72;;;17.80;91.40;;;;;;5089685;28;20077;-71
2021/09/22 10:08:14;;;;;;;10.27;5.18;;;17.80;91.50;;;;;;5089162;28;20059;-75
2021/09/22 10:10:44;;;;;;;10.98;4.35;;;17.80;91.70;;;;;;5084960;28;20130;-71
2021/09/22 10:13:12;;;;;;;7.10;3.83;;;17.80;91.70;;;;;;5082182;28;20033;-77
2021/09/22 10:15:40;;;;;;;23.90;5.38;;;17.90;91.70;;;;;;5080795;28;20042;-72
2021/09/22 10:18:08;;;;;;;11.73;4.57;;;17.90;91.70;;;;;;5073901;28;20036;-72
2021/09/22 10:20:42;;;;;;;11.13;4.53;;;17.90;91.70;;;;;;5075924;28;20490;-71
2021/09/22 10:23:09;;;;;;;15.00;5.13;;;18.00;91.70;;;;;;5079531;28;20031;-72
2021/09/22 10:25:35;;;;;;;11.00;5.13;;;18.00;91.80;;;;;;5071781;28;20472;-74
2021/09/22 10:28:02;;;;;;;9.23;3.50;;;18.10;91.80;;;;;;5073616;28;20024;-72
2021/09/22 10:30:37;;;;;;;8.13;3.67;;;18.10;91.90;;;;;;5074359;28;20046;-72
2021/09/22 10:33:04;;;;;;;14.88;5.13;;;18.10;91.80;;;;;;5074644;28;20032;-72
2021/09/22 10:35:36;;;;;;;5.15;3.10;;;18.20;91.90;;;;;;5071751;28;20027;-72
2021/09/22 10:38:19;;;;;;;7.22;4.07;;;18.30;92.00;;;;;;5076745;28;20106;-72
2021/09/22 10:40:52;;;;;;;;;;;18.30;91.90;;;;;;5080452;28;20472;-71
2021/09/22 10:43:27;;;;;;;8.43;4.20;;;18.40;91.80;;;;;;5072768;28;20359;-71
2021/09/22 10:46:11;;;;;;;13.10;5.30;;;18.40;91.70;;;;;;5073613;28;20036;-71
2021/09/22 10:48:39;;;;;;;11.60;5.07;;;18.50;91.60;;;;;;5075579;28;20029;-72
2021/09/22 10:51:10;;;;;;;10.48;4.72;;;18.50;91.50;;;;;;5076652;28;20041;-71
2021/09/22 10:53:41;;;;;;;10.75;4.55;;;18.50;91.50;;;;;;5076086;28;20059;-71
2021/09/22 10:56:07;;;;;;;6.82;3.85;;;18.50;91.50;;;;;;5076312;28;20032;-71
2021/09/22 10:58:38;;;;;;;11.65;5.75;;;18.60;91.50;;;;;;5077583;28;20024;-71
2021/09/22 11:01:04;;;;;;;7.35;3.70;;;18.60;91.40;;;;;;5077831;28;20024;-72
2021/09/22 11:03:48;;;;;;;13.30;5.97;;;18.60;91.40;;;;;;5075474;28;20030;-71
2021/09/22 11:06:47;;;;;;;9.02;4.93;;;18.70;91.30;;;;;;5075093;28;20043;-71
2021/09/22 11:09:23;;;;;;;15.32;6.45;;;18.80;91.40;;;;;;5073772;28;20104;-71
2021/09/22 11:11:55;;;;;;;11.43;5.30;;;18.80;91.50;;;;;;5075925;28;20040;-71
2021/09/22 11:14:30;;;;;;;15.50;3.95;;;18.80;91.40;;;;;;5073230;28;20025;-71
2021/09/22 11:16:57;;;;;;;10.57;5.38;;;18.90;91.40;;;;;;5074301;28;20028;-71
2021/09/22 11:19:24;;;;;;;9.15;4.20;;;19.00;91.40;;;;;;5074354;28;20082;-71
2021/09/22 11:21:50;;;;;;;16.58;8.35;;;19.00;91.20;;;;;;5075153;28;20028;-71
2021/09/22 11:24:18;;;;;;;8.25;2.90;;;19.10;91.00;;;;;;5073613;28;20563;-71
2021/09/22 11:26:57;;;;;;;2.15;1.95;;;19.10;91.00;;;;;;5074957;28;20059;-71
2021/09/22 11:29:48;;;;;;;10.80;5.13;;;19.20;90.90;;;;;;5075880;28;20440;-72
2021/09/22 11:32:38;;;;;;;10.10;4.13;;;19.30;90.80;;;;;;5076156;28;20040;-71
2021/09/22 11:35:10;;;;;;;13.98;3.88;;;19.40;90.70;;;;;;5081821;28;20032;-71
2021/09/22 11:37:40;;;;;;;7.90;4.15;;;19.40;90.60;;;;;;5078543;28;20044;-71
2021/09/22 11:40:09;;;;;;;6.97;4.13;;;19.50;90.50;;;;;;5077638;28;20038;-71
2021/09/22 11:42:34;;;;;;;7.18;2.92;;;19.50;90.30;;;;;;5073834;28;20028;-71
2021/09/22 11:45:00;;;;;;;9.07;3.90;;;19.60;90.30;;;;;;5074723;28;20030;-76
2021/09/22 11:47:26;;;;;;;7.68;4.30;;;19.60;90.20;;;;;;5087074;28;20032;-77
2021/09/22 11:49:51;;;;;;;8.23;4.43;;;19.70;90.10;;;;;;5076596;28;20035;-72
2021/09/22 11:52:20;;;;;;;11.35;5.45;;;19.80;89.80;;;;;;5083551;28;20428;-70
2021/09/22 11:54:56;;;;;;;3.63;2.55;;;19.80;89.60;;;;;;5089258;28;20096;-70
2021/09/22 11:57:24;;;;;;;5.20;2.30;;;19.80;89.80;;;;;;5092832;28;20398;-69
2021/09/22 11:59:50;;;;;;;3.92;2.13;;;19.90;89.70;;;;;;5078593;28;20024;-70
2021/09/22 12:02:16;;;;;;;7.70;2.90;;;20.00;89.60;;;;;;5093979;28;20039;-70
2021/09/22 12:04:45;;;;;;;5.93;2.60;;;20.00;89.30;;;;;;5092856;28;20477;-70
2021/09/22 12:07:14;;;;;;;8.00;3.22;;;20.00;89.10;;;;;;5091479;28;20081;-70
2021/09/22 12:09:42;;;;;;;9.93;3.40;;;20.10;89.10;;;;;;5091571;28;20024;-70
2021/09/22 12:12:12;;;;;;;4.07;2.45;;;20.10;88.50;;;;;;5086168;28;20036;-70
2021/09/22 12:14:38;;;;;;;8.98;3.75;;;20.20;88.90;;;;;;5090059;28;20495;-70
2021/09/22 12:17:05;;;;;;;11.82;5.15;;;20.20;88.10;;;;;;5089673;28;20059;-70
2021/09/22 12:19:31;;;;;;;14.07;3.97;;;20.30;88.00;;;;;;5090955;28;20111;-70
2021/09/22 12:21:56;;;;;;;6.60;3.92;;;20.30;88.10;;;;;;5089437;28;20115;-70
2021/09/22 12:24:22;;;;;;;3.90;2.38;;;20.40;87.90;;;;;;5079441;28;20043;-70
2021/09/22 12:26:52;;;;;;;8.15;3.67;;;20.40;87.90;;;;;;5080000;28;20055;-70
2021/09/22 12:29:19;;;;;;;7.20;3.25;;;20.40;87.30;;;;;;5073088;28;20078;-70
2021/09/22 12:31:45;;;;;;;9.07;3.35;;;20.50;87.30;;;;;;5092246;28;20082;-70
2021/09/22 12:34:25;;;;;;;4.28;1.85;;;20.50;87.20;;;;;;5079186;28;20055;-69
2021/09/22 12:36:52;;;;;;;3.70;2.53;;;20.50;87.10;;;;;;5080686;28;20040;-70
2021/09/22 12:39:22;;;;;;;10.15;3.90;;;20.60;86.90;;;;;;5092322;28;20067;-70
2021/09/22 12:42:03;;;;;;;10.45;3.72;;;20.50;86.20;;;;;;5091573;28;20043;-69
2021/09/22 12:44:30;;;;;;;10.80;4.55;;;20.60;86.50;;;;;;5078172;28;20047;-70
2021/09/22 12:46:55;;;;;;;13.10;5.00;;;20.70;85.90;;;;;;5082992;28;20052;-70
2021/09/22 12:49:24;;;;;;;4.40;2.20;;;20.70;83.90;;;;;;5076512;28;20501;-70
2021/09/22 12:51:56;;;;;;;2.00;1.42;;;20.80;86.00;;;;;;5094826;28;20051;-69
2021/09/22 12:54:22;;;;;;;2.00;1.13;;;20.90;85.40;;;;;;5079235;28;20460;-70
2021/09/22 12:56:48;;;;;;;5.28;2.47;;;20.90;85.10;;;;;;5091971;28;20040;-70
2021/09/22 12:59:34;;;;;;;3.92;1.90;;;21.00;84.40;;;;;;5080839;28;20020;-70
2021/09/22 13:02:00;;;;;;;7.43;2.63;;;21.00;84.00;;;;;;5073147;28;20039;-70